EDQF weather

Ansbach-Petersdorf Airport
Ansbach, Bavaria, Germany

Public forecast

Using degrees Celsius for public forecast. Weather courtesy of forecast.io.

METAR (pilot weather report)

Closest report is Ansbach Army Heliport, 3.4 nm (6.3 km) SSW. Retrieved 2019/09/22 18:56 UTC (21 minutes ago):

ETEB 221856Z AUTO 13004KT 9999 BKN130 16/11 A2987 RMK AO2 SLP122 T01620107 $

TAF (pilot weather forecast)

Forecast is more than 12 hours old.

Closest forecast is Ansbach Army Heliport, 3.4 nm (6.3 km) SSW. Retrieved 2019/09/20 13:07 UTC (2 days ago):

TAF ETEB 201306Z 2013/2119 07008KT 9999 SKC QNH3029INS BECMG 2017/2018 VRB06KT 9999 SKC QNH3020INS BECMG 2109/2110 11009KT 9999 SKC QNH3010INS TX20/2014Z TN05/2105Z